Terminal Aerodrome Forecast
Issued by NWS Duluth, MN

Home | Current Version | Previous Version | Text Only | Print | Product List | Glossary On
Versions: 1 2 3 4 5 6 7 8 9 10 11 12 13 14 15 16 17 18 19 20 21 22 23 24 25 26 27 28 29 30 31 32 33 34 35 36 37 38 39 40 41 42 43 44 45 46
000
FTUS43 KDLH 270200 AAA
TAFDLH
TAF AMD
KDLH 270211Z 2702/2724 31006KT P6SM SCT035
      TEMPO 2705/2706 -SHRA
     FM270600 VRB04KT P6SM -SHRA SCT050 BKN090
      TEMPO 2710/2712 3SM BR OVC070
     FM271600 28006KT P6SM SCT140
     FM272300 VRB03KT P6SM SKC=

USA.gov is the U.S. government's official web portal to all federal, state and local government web resources and services.